sensor_id;sensor_type;location;lat;lon;timestamp;P1;durP1;ratioP1;P2;durP2;ratioP2
1122;SDS011;548;48.778;9.252;2022-11-14T03:58:07;45.03;;;40.67;;
1122;SDS011;548;48.778;9.252;2022-11-14T04:00:34;48.47;;;43.43;;
1122;SDS011;548;48.778;9.252;2022-11-14T04:03:01;52.00;;;46.80;;
1122;SDS011;548;48.778;9.252;2022-11-14T04:05:28;50.57;;;45.50;;
1122;SDS011;548;48.778;9.252;2022-11-14T04:07:55;49.53;;;45.10;;
1122;SDS011;548;48.778;9.252;2022-11-14T04:10:22;51.20;;;46.43;;
1122;SDS011;548;48.778;9.252;2022-11-14T04:12:49;52.80;;;47.40;;
1122;SDS011;548;48.778;9.252;2022-11-14T04:15:18;48.83;;;43.93;;
1122;SDS011;548;48.778;9.252;2022-11-14T04:17:46;45.37;;;41.30;;
1122;SDS011;548;48.778;9.252;2022-11-14T04:20:13;44.67;;;41.13;;
1122;SDS011;548;48.778;9.252;2022-11-14T04:22:40;43.37;;;39.63;;
1122;SDS011;548;48.778;9.252;2022-11-14T04:25:07;42.03;;;38.53;;
1122;SDS011;548;48.778;9.252;2022-11-14T04:27:34;40.80;;;37.53;;
1122;SDS011;548;48.778;9.252;2022-11-14T04:30:01;43.50;;;40.10;;
1122;SDS011;548;48.778;9.252;2022-11-14T04:32:30;44.50;;;40.87;;
1122;SDS011;548;48.778;9.252;2022-11-14T04:34:57;44.37;;;40.57;;
1122;SDS011;548;48.778;9.252;2022-11-14T04:37:23;44.20;;;40.40;;
1122;SDS011;548;48.778;9.252;2022-11-14T04:39:50;42.43;;;39.23;;
1122;SDS011;548;48.778;9.252;2022-11-14T04:42:17;44.57;;;40.80;;
1122;SDS011;548;48.778;9.252;2022-11-14T04:44:44;43.60;;;39.87;;
1122;SDS011;548;48.778;9.252;2022-11-14T04:47:10;44.10;;;40.17;;
1122;SDS011;548;48.778;9.252;2022-11-14T04:49:38;42.63;;;39.23;;
1122;SDS011;548;48.778;9.252;2022-11-14T04:52:05;47.20;;;43.40;;
1122;SDS011;548;48.778;9.252;2022-11-14T04:54:32;44.33;;;40.60;;
1122;SDS011;548;48.778;9.252;2022-11-14T04:56:59;44.13;;;40.83;;
1122;SDS011;548;48.778;9.252;2022-11-14T04:59:25;45.63;;;41.83;;
1122;SDS011;548;48.778;9.252;2022-11-14T05:01:52;46.33;;;42.53;;
1122;SDS011;548;48.778;9.252;2022-11-14T05:04:19;47.13;;;43.03;;
1122;SDS011;548;48.778;9.252;2022-11-14T05:06:47;46.57;;;42.30;;
1122;SDS011;548;48.778;9.252;2022-11-14T05:09:14;42.97;;;39.30;;
1122;SDS011;548;48.778;9.252;2022-11-14T05:11:40;44.37;;;40.60;;
1122;SDS011;548;48.778;9.252;2022-11-14T05:14:07;44.43;;;40.73;;
1122;SDS011;548;48.778;9.252;2022-11-14T05:16:34;45.33;;;41.23;;
1122;SDS011;548;48.778;9.252;2022-11-14T05:19:00;42.90;;;39.50;;
1122;SDS011;548;48.778;9.252;2022-11-14T05:21:27;39.80;;;36.67;;
1122;SDS011;548;48.778;9.252;2022-11-14T05:23:55;45.27;;;41.63;;
1122;SDS011;548;48.778;9.252;2022-11-14T05:26:22;43.60;;;40.17;;
1122;SDS011;548;48.778;9.252;2022-11-14T05:28:49;46.17;;;42.37;;
1122;SDS011;548;48.778;9.252;2022-11-14T05:31:16;44.77;;;40.43;;
1122;SDS011;548;48.778;9.252;2022-11-14T05:33:43;41.53;;;38.30;;
1122;SDS011;548;48.778;9.252;2022-11-14T05:36:12;45.93;;;41.93;;
1122;SDS011;548;48.778;9.252;2022-11-14T05:38:40;46.23;;;42.43;;
1122;SDS011;548;48.778;9.252;2022-11-14T05:41:09;46.90;;;42.80;;
1122;SDS011;548;48.778;9.252;2022-11-14T05:43:37;45.43;;;41.80;;
1122;SDS011;548;48.778;9.252;2022-11-14T05:46:04;44.20;;;40.77;;
1122;SDS011;548;48.778;9.252;2022-11-14T05:48:32;45.87;;;42.27;;
1122;SDS011;548;48.778;9.252;2022-11-14T05:50:59;43.10;;;39.47;;
1122;SDS011;548;48.778;9.252;2022-11-14T05:53:27;44.20;;;40.30;;
1122;SDS011;548;48.778;9.252;2022-11-14T05:55:58;43.33;;;39.70;;
1122;SDS011;548;48.778;9.252;2022-11-14T05:58:27;46.30;;;42.50;;
1122;SDS011;548;48.778;9.252;2022-11-14T06:01:00;42.00;;;39.00;;
1122;SDS011;548;48.778;9.252;2022-11-14T06:03:29;42.10;;;38.73;;
1122;SDS011;548;48.778;9.252;2022-11-14T06:05:58;43.93;;;40.30;;
1122;SDS011;548;48.778;9.252;2022-11-14T06:08:26;40.67;;;37.47;;
1122;SDS011;548;48.778;9.252;2022-11-14T06:10:53;46.30;;;42.37;;
1122;SDS011;548;48.778;9.252;2022-11-14T06:13:20;44.97;;;41.00;;
1122;SDS011;548;48.778;9.252;2022-11-14T06:15:49;47.80;;;44.10;;
1122;SDS011;548;48.778;9.252;2022-11-14T06:18:16;45.00;;;41.63;;
1122;SDS011;548;48.778;9.252;2022-11-14T06:20:43;44.77;;;41.00;;
1122;SDS011;548;48.778;9.252;2022-11-14T06:23:10;44.73;;;41.30;;
1122;SDS011;548;48.778;9.252;2022-11-14T06:25:36;45.37;;;41.97;;
1122;SDS011;548;48.778;9.252;2022-11-14T06:28:03;46.23;;;42.37;;
1122;SDS011;548;48.778;9.252;2022-11-14T06:30:30;45.17;;;41.33;;
1122;SDS011;548;48.778;9.252;2022-11-14T06:32:58;49.27;;;44.90;;
1122;SDS011;548;48.778;9.252;2022-11-14T06:35:25;48.67;;;44.27;;
1122;SDS011;548;48.778;9.252;2022-11-14T06:37:52;47.80;;;43.60;;
1122;SDS011;548;48.778;9.252;2022-11-14T06:40:19;47.67;;;43.53;;
1122;SDS011;548;48.778;9.252;2022-11-14T06:42:46;48.20;;;43.70;;
1122;SDS011;548;48.778;9.252;2022-11-14T06:45:12;49.77;;;45.07;;
1122;SDS011;548;48.778;9.252;2022-11-14T06:47:39;48.60;;;44.30;;
1122;SDS011;548;48.778;9.252;2022-11-14T06:50:08;47.30;;;43.20;;
1122;SDS011;548;48.778;9.252;2022-11-14T06:52:35;49.27;;;44.80;;
1122;SDS011;548;48.778;9.252;2022-11-14T06:55:02;46.43;;;42.90;;
1122;SDS011;548;48.778;9.252;2022-11-14T06:57:28;48.13;;;44.50;;
1122;SDS011;548;48.778;9.252;2022-11-14T06:59:55;49.17;;;44.70;;
1122;SDS011;548;48.778;9.252;2022-11-14T07:02:23;44.83;;;41.47;;
1122;SDS011;548;48.778;9.252;2022-11-14T07:04:49;44.00;;;40.20;;
1122;SDS011;548;48.778;9.252;2022-11-14T07:07:18;45.47;;;41.07;;
1122;SDS011;548;48.778;9.252;2022-11-14T07:09:46;45.83;;;41.80;;
1122;SDS011;548;48.778;9.252;2022-11-14T07:12:13;40.83;;;37.57;;
1122;SDS011;548;48.778;9.252;2022-11-14T07:14:39;41.07;;;37.47;;
1122;SDS011;548;48.778;9.252;2022-11-14T07:17:07;44.67;;;40.80;;
1122;SDS011;548;48.778;9.252;2022-11-14T07:19:33;44.60;;;40.80;;
1122;SDS011;548;48.778;9.252;2022-11-14T07:22:00;39.80;;;36.40;;
1122;SDS011;548;48.778;9.252;2022-11-14T07:24:28;42.60;;;38.40;;
1122;SDS011;548;48.778;9.252;2022-11-14T07:26:55;37.43;;;34.33;;
1122;SDS011;548;48.778;9.252;2022-11-14T07:29:22;40.30;;;36.80;;
1122;SDS011;548;48.778;9.252;2022-11-14T07:31:49;39.70;;;36.27;;
1122;SDS011;548;48.778;9.252;2022-11-14T07:34:15;41.83;;;37.63;;
1122;SDS011;548;48.778;9.252;2022-11-14T07:36:43;39.93;;;36.50;;
1122;SDS011;548;48.778;9.252;2022-11-14T07:39:10;37.73;;;34.17;;
1122;SDS011;548;48.778;9.252;2022-11-14T07:41:38;38.70;;;35.13;;
1122;SDS011;548;48.778;9.252;2022-11-14T07:44:05;39.03;;;35.43;;
1122;SDS011;548;48.778;9.252;2022-11-14T07:46:32;34.57;;;31.47;;
1122;SDS011;548;48.778;9.252;2022-11-14T07:48:59;37.83;;;34.67;;
1122;SDS011;548;48.778;9.252;2022-11-14T07:51:25;34.97;;;32.07;;
1122;SDS011;548;48.778;9.252;2022-11-14T07:53:52;35.00;;;32.40;;
1122;SDS011;548;48.778;9.252;2022-11-14T07:56:29;35.13;;;32.10;;
1122;SDS011;548;48.778;9.252;2022-11-14T07:58:57;34.87;;;31.50;;
1122;SDS011;548;48.778;9.252;2022-11-14T08:01:24;33.63;;;30.33;;
1122;SDS011;548;48.778;9.252;2022-11-14T08:03:51;33.23;;;30.73;;
1122;SDS011;548;48.778;9.252;2022-11-14T08:06:17;30.17;;;27.57;;
1122;SDS011;548;48.778;9.252;2022-11-14T08:08:44;32.60;;;30.10;;
1122;SDS011;548;48.778;9.252;2022-11-14T08:11:11;30.80;;;28.30;;
1122;SDS011;548;48.778;9.252;2022-11-14T08:13:37;34.07;;;31.07;;
1122;SDS011;548;48.778;9.252;2022-11-14T08:16:07;33.57;;;30.97;;
1122;SDS011;548;48.778;9.252;2022-11-14T08:18:35;36.17;;;33.53;;
1122;SDS011;548;48.778;9.252;2022-11-14T08:21:02;45.07;;;41.43;;
1122;SDS011;548;48.778;9.252;2022-11-14T08:23:29;47.70;;;43.90;;
1122;SDS011;548;48.778;9.252;2022-11-14T08:25:56;46.83;;;42.33;;
1122;SDS011;548;48.778;9.252;2022-11-14T08:28:23;47.60;;;44.07;;
1122;SDS011;548;48.778;9.252;2022-11-14T08:30:50;48.00;;;44.20;;
1122;SDS011;548;48.778;9.252;2022-11-14T08:33:18;44.17;;;40.83;;
1122;SDS011;548;48.778;9.252;2022-11-14T08:35:45;46.40;;;42.80;;
1122;SDS011;548;48.778;9.252;2022-11-14T08:38:13;45.57;;;42.20;;
1122;SDS011;548;48.778;9.252;2022-11-14T08:40:40;45.50;;;42.07;;
1122;SDS011;548;48.778;9.252;2022-11-14T08:43:07;43.97;;;40.60;;
1122;SDS011;548;48.778;9.252;2022-11-14T08:45:35;42.20;;;39.17;;
1122;SDS011;548;48.778;9.252;2022-11-14T08:48:02;41.63;;;38.73;;
1122;SDS011;548;48.778;9.252;2022-11-14T08:50:31;42.60;;;39.60;;
1122;SDS011;548;48.778;9.252;2022-11-14T08:52:57;39.30;;;36.77;;
1122;SDS011;548;48.778;9.252;2022-11-14T08:55:24;37.43;;;34.93;;
1122;SDS011;548;48.778;9.252;2022-11-14T08:57:51;39.77;;;36.97;;
1122;SDS011;548;48.778;9.252;2022-11-14T09:00:19;38.67;;;36.00;;
1122;SDS011;548;48.778;9.252;2022-11-14T09:02:46;39.10;;;36.30;;
1122;SDS011;548;48.778;9.252;2022-11-14T09:05:13;40.17;;;37.40;;
1122;SDS011;548;48.778;9.252;2022-11-14T09:07:41;40.10;;;37.20;;
1122;SDS011;548;48.778;9.252;2022-11-14T09:10:08;36.93;;;34.33;;
1122;SDS011;548;48.778;9.252;2022-11-14T09:12:35;42.70;;;39.40;;
1122;SDS011;548;48.778;9.252;2022-11-14T09:15:02;49.03;;;45.13;;
1122;SDS011;548;48.778;9.252;2022-11-14T09:17:28;47.00;;;43.27;;
1122;SDS011;548;48.778;9.252;2022-11-14T09:19:55;45.27;;;41.60;;
1122;SDS011;548;48.778;9.252;2022-11-14T09:22:22;45.77;;;42.17;;
1122;SDS011;548;48.778;9.252;2022-11-14T09:24:50;42.70;;;39.40;;
1122;SDS011;548;48.778;9.252;2022-11-14T09:27:17;49.80;;;45.20;;
1122;SDS011;548;48.778;9.252;2022-11-14T09:29:43;49.57;;;45.40;;
1122;SDS011;548;48.778;9.252;2022-11-14T09:32:10;47.23;;;43.87;;
1122;SDS011;548;48.778;9.252;2022-11-14T09:34:37;48.87;;;45.27;;
1122;SDS011;548;48.778;9.252;2022-11-14T09:37:07;49.57;;;45.53;;
1122;SDS011;548;48.778;9.252;2022-11-14T09:39:33;43.67;;;40.67;;
1122;SDS011;548;48.778;9.252;2022-11-14T09:42:09;48.23;;;44.37;;
1122;SDS011;548;48.778;9.252;2022-11-14T09:44:53;44.83;;;41.43;;
1122;SDS011;548;48.778;9.252;2022-11-14T09:47:23;49.03;;;44.70;;
1122;SDS011;548;48.778;9.252;2022-11-14T09:49:54;50.40;;;46.30;;
1122;SDS011;548;48.778;9.252;2022-11-14T09:52:28;47.93;;;44.20;;
1122;SDS011;548;48.778;9.252;2022-11-14T09:55:01;50.50;;;46.10;;
1122;SDS011;548;48.778;9.252;2022-11-14T09:57:37;53.43;;;49.13;;
1122;SDS011;548;48.778;9.252;2022-11-14T10:03:23;50.60;;;46.07;;
1122;SDS011;548;48.778;9.252;2022-11-14T10:06:08;50.07;;;46.37;;
1122;SDS011;548;48.778;9.252;2022-11-14T10:08:48;49.97;;;46.20;;
1122;SDS011;548;48.778;9.252;2022-11-14T10:11:27;49.60;;;45.90;;
1122;SDS011;548;48.778;9.252;2022-11-14T10:14:07;51.00;;;47.20;;
1122;SDS011;548;48.778;9.252;2022-11-14T10:16:50;52.73;;;48.40;;
1122;SDS011;548;48.778;9.252;2022-11-14T10:19:26;48.50;;;44.70;;
1122;SDS011;548;48.778;9.252;2022-11-14T10:22:01;48.60;;;44.90;;
1122;SDS011;548;48.778;9.252;2022-11-14T10:24:41;48.50;;;44.70;;
1122;SDS011;548;48.778;9.252;2022-11-14T10:27:19;49.10;;;45.30;;
1122;SDS011;548;48.778;9.252;2022-11-14T10:29:56;52.57;;;48.17;;
1122;SDS011;548;48.778;9.252;2022-11-14T10:32:33;49.63;;;45.90;;
1122;SDS011;548;48.778;9.252;2022-11-14T10:35:13;46.43;;;43.00;;
1122;SDS011;548;48.778;9.252;2022-11-14T10:37:45;45.20;;;41.70;;
1122;SDS011;548;48.778;9.252;2022-11-14T10:41:56;47.10;;;43.40;;
1122;SDS011;548;48.778;9.252;2022-11-14T10:43:58;43.90;;;40.63;;
1122;SDS011;548;48.778;9.252;2022-11-14T10:46:27;41.70;;;38.50;;
1122;SDS011;548;48.778;9.252;2022-11-14T10:48:59;46.93;;;43.50;;
1122;SDS011;548;48.778;9.252;2022-11-14T10:51:27;40.20;;;37.50;;
1122;SDS011;548;48.778;9.252;2022-11-14T10:53:59;39.60;;;36.63;;
1122;SDS011;548;48.778;9.252;2022-11-14T10:56:31;38.60;;;35.60;;
1122;SDS011;548;48.778;9.252;2022-11-14T10:58:58;38.37;;;35.30;;
1122;SDS011;548;48.778;9.252;2022-11-14T11:01:33;37.70;;;34.90;;
1122;SDS011;548;48.778;9.252;2022-11-14T11:04:12;36.13;;;33.40;;
1122;SDS011;548;48.778;9.252;2022-11-14T11:06:44;37.40;;;34.40;;
1122;SDS011;548;48.778;9.252;2022-11-14T11:09:12;33.73;;;30.80;;
1122;SDS011;548;48.778;9.252;2022-11-14T11:11:59;31.47;;;28.90;;
1122;SDS011;548;48.778;9.252;2022-11-14T11:14:26;33.77;;;30.67;;
1122;SDS011;548;48.778;9.252;2022-11-14T11:17:12;29.67;;;27.23;;
1122;SDS011;548;48.778;9.252;2022-11-14T11:19:45;26.60;;;24.00;;
1122;SDS011;548;48.778;9.252;2022-11-14T11:22:23;26.07;;;24.20;;
1122;SDS011;548;48.778;9.252;2022-11-14T11:24:51;22.43;;;21.00;;
1122;SDS011;548;48.778;9.252;2022-11-14T11:27:19;22.50;;;20.93;;
1122;SDS011;548;48.778;9.252;2022-11-14T11:29:49;20.33;;;18.67;;
1122;SDS011;548;48.778;9.252;2022-11-14T11:32:30;17.03;;;15.90;;
1122;SDS011;548;48.778;9.252;2022-11-14T11:34:57;19.60;;;18.10;;
1122;SDS011;548;48.778;9.252;2022-11-14T11:37:38;18.90;;;17.70;;
1122;SDS011;548;48.778;9.252;2022-11-14T11:40:12;18.90;;;17.60;;
1122;SDS011;548;48.778;9.252;2022-11-14T11:42:44;22.27;;;20.77;;
1122;SDS011;548;48.778;9.252;2022-11-14T11:45:15;18.03;;;16.73;;
1122;SDS011;548;48.778;9.252;2022-11-14T11:47:45;18.57;;;17.37;;
1122;SDS011;548;48.778;9.252;2022-11-14T11:50:17;18.63;;;17.43;;
1122;SDS011;548;48.778;9.252;2022-11-14T11:52:47;22.73;;;21.10;;
1122;SDS011;548;48.778;9.252;2022-11-14T11:55:20;19.47;;;18.27;;
1122;SDS011;548;48.778;9.252;2022-11-14T11:57:52;18.60;;;16.90;;
1122;SDS011;548;48.778;9.252;2022-11-14T12:00:26;18.90;;;17.53;;
1122;SDS011;548;48.778;9.252;2022-11-14T12:02:55;16.13;;;15.33;;
1122;SDS011;548;48.778;9.252;2022-11-14T12:05:24;17.10;;;16.20;;
1122;SDS011;548;48.778;9.252;2022-11-14T12:07:57;16.80;;;16.00;;
1122;SDS011;548;48.778;9.252;2022-11-14T12:10:29;17.90;;;16.90;;
1122;SDS011;548;48.778;9.252;2022-11-14T12:13:08;18.63;;;17.50;;
1122;SDS011;548;48.778;9.252;2022-11-14T12:15:57;17.90;;;16.90;;
1122;SDS011;548;48.778;9.252;2022-11-14T12:18:39;18.20;;;17.00;;
1122;SDS011;548;48.778;9.252;2022-11-14T12:21:24;14.60;;;13.90;;
1122;SDS011;548;48.778;9.252;2022-11-14T12:27:21;13.10;;;12.50;;
1122;SDS011;548;48.778;9.252;2022-11-14T12:30:06;14.23;;;13.43;;
1122;SDS011;548;48.778;9.252;2022-11-14T12:32:38;14.10;;;13.30;;
1122;SDS011;548;48.778;9.252;2022-11-14T12:35:13;13.60;;;13.00;;
1122;SDS011;548;48.778;9.252;2022-11-14T12:37:45;13.40;;;12.80;;
1122;SDS011;548;48.778;9.252;2022-11-14T12:40:20;12.63;;;11.93;;
1122;SDS011;548;48.778;9.252;2022-11-14T12:42:50;12.60;;;12.10;;
1122;SDS011;548;48.778;9.252;2022-11-14T12:48:31;13.27;;;12.70;;
1122;SDS011;548;48.778;9.252;2022-11-14T12:51:02;13.03;;;12.53;;
1122;SDS011;548;48.778;9.252;2022-11-14T12:53:37;12.97;;;12.20;;
1122;SDS011;548;48.778;9.252;2022-11-14T12:59:19;14.53;;;13.67;;
1122;SDS011;548;48.778;9.252;2022-11-14T13:01:57;12.37;;;11.77;;
1122;SDS011;548;48.778;9.252;2022-11-14T13:04:45;13.27;;;11.93;;
1122;SDS011;548;48.778;9.252;2022-11-14T13:07:27;12.63;;;12.10;;
1122;SDS011;548;48.778;9.252;2022-11-14T13:10:12;13.23;;;12.60;;
1122;SDS011;548;48.778;9.252;2022-11-14T13:12:40;13.70;;;12.90;;
1122;SDS011;548;48.778;9.252;2022-11-14T13:15:26;13.73;;;13.10;;
1122;SDS011;548;48.778;9.252;2022-11-14T13:18:12;12.43;;;11.93;;
1122;SDS011;548;48.778;9.252;2022-11-14T13:21:01;13.63;;;12.77;;
1122;SDS011;548;48.778;9.252;2022-11-14T13:23:55;13.53;;;12.83;;
1122;SDS011;548;48.778;9.252;2022-11-14T13:35:31;14.77;;;13.90;;
1122;SDS011;548;48.778;9.252;2022-11-14T13:41:04;13.80;;;13.13;;
1122;SDS011;548;48.778;9.252;2022-11-14T13:43:51;14.27;;;13.53;;
1122;SDS011;548;48.778;9.252;2022-11-14T13:46:29;14.00;;;13.40;;
1122;SDS011;548;48.778;9.252;2022-11-14T13:49:11;14.37;;;13.67;;
1122;SDS011;548;48.778;9.252;2022-11-14T13:51:49;13.33;;;12.53;;
1122;SDS011;548;48.778;9.252;2022-11-14T13:54:17;13.50;;;12.90;;
1122;SDS011;548;48.778;9.252;2022-11-14T13:56:50;13.43;;;12.83;;
1122;SDS011;548;48.778;9.252;2022-11-14T13:59:33;14.13;;;13.23;;
1122;SDS011;548;48.778;9.252;2022-11-14T14:02:21;13.20;;;12.43;;
1122;SDS011;548;48.778;9.252;2022-11-14T14:05:11;12.83;;;12.33;;
1122;SDS011;548;48.778;9.252;2022-11-14T14:07:51;12.93;;;12.20;;
1122;SDS011;548;48.778;9.252;2022-11-14T14:10:28;14.00;;;13.20;;
1122;SDS011;548;48.778;9.252;2022-11-14T14:13:09;13.77;;;13.07;;
1122;SDS011;548;48.778;9.252;2022-11-14T14:15:59;12.77;;;12.17;;
1122;SDS011;548;48.778;9.252;2022-11-14T14:18:34;14.30;;;13.60;;
1122;SDS011;548;48.778;9.252;2022-11-14T14:21:22;13.23;;;12.63;;
1122;SDS011;548;48.778;9.252;2022-11-14T14:24:00;13.60;;;12.90;;
1122;SDS011;548;48.778;9.252;2022-11-14T14:26:36;14.00;;;13.30;;
1122;SDS011;548;48.778;9.252;2022-11-14T14:29:17;13.70;;;13.20;;
1122;SDS011;548;48.778;9.252;2022-11-14T14:31:49;13.40;;;12.30;;
1122;SDS011;548;48.778;9.252;2022-11-14T14:34:20;13.57;;;12.87;;
1122;SDS011;548;48.778;9.252;2022-11-14T14:36:48;13.90;;;13.20;;
1122;SDS011;548;48.778;9.252;2022-11-14T14:39:16;15.07;;;14.20;;
1122;SDS011;548;48.778;9.252;2022-11-14T14:41:44;14.53;;;13.50;;
1122;SDS011;548;48.778;9.252;2022-11-14T14:44:17;16.40;;;15.40;;
1122;SDS011;548;48.778;9.252;2022-11-14T14:46:47;17.03;;;15.87;;
1122;SDS011;548;48.778;9.252;2022-11-14T14:49:17;14.97;;;14.07;;
1122;SDS011;548;48.778;9.252;2022-11-14T14:51:46;18.40;;;16.97;;
1122;SDS011;548;48.778;9.252;2022-11-14T14:54:20;17.17;;;16.17;;
1122;SDS011;548;48.778;9.252;2022-11-14T14:56:51;16.37;;;15.47;;
1122;SDS011;548;48.778;9.252;2022-11-14T14:59:21;15.80;;;14.90;;
1122;SDS011;548;48.778;9.252;2022-11-14T15:01:50;15.87;;;15.10;;
1122;SDS011;548;48.778;9.252;2022-11-14T15:04:17;13.33;;;12.53;;
1122;SDS011;548;48.778;9.252;2022-11-14T15:06:45;15.47;;;14.57;;
1122;SDS011;548;48.778;9.252;2022-11-14T15:09:17;16.30;;;15.37;;
1122;SDS011;548;48.778;9.252;2022-11-14T15:11:46;16.80;;;15.83;;
1122;SDS011;548;48.778;9.252;2022-11-14T15:14:16;19.07;;;17.67;;
1122;SDS011;548;48.778;9.252;2022-11-14T15:16:46;19.13;;;17.80;;
1122;SDS011;548;48.778;9.252;2022-11-14T15:19:15;18.63;;;17.20;;
1122;SDS011;548;48.778;9.252;2022-11-14T15:21:44;17.70;;;16.57;;
1122;SDS011;548;48.778;9.252;2022-11-14T15:24:12;16.50;;;15.30;;
1122;SDS011;548;48.778;9.252;2022-11-14T15:26:42;18.03;;;16.63;;
1122;SDS011;548;48.778;9.252;2022-11-14T15:29:14;15.77;;;14.90;;
1122;SDS011;548;48.778;9.252;2022-11-14T15:31:44;16.53;;;15.63;;
1122;SDS011;548;48.778;9.252;2022-11-14T15:34:22;16.47;;;15.23;;
1122;SDS011;548;48.778;9.252;2022-11-14T15:37:06;19.30;;;18.17;;
1122;SDS011;548;48.778;9.252;2022-11-14T15:39:45;19.80;;;18.33;;
1122;SDS011;548;48.778;9.252;2022-11-14T15:42:13;16.70;;;15.00;;
1122;SDS011;548;48.778;9.252;2022-11-14T15:44:40;18.17;;;16.90;;
1122;SDS011;548;48.778;9.252;2022-11-14T15:47:11;19.10;;;17.80;;
1122;SDS011;548;48.778;9.252;2022-11-14T15:49:38;17.70;;;16.70;;
1122;SDS011;548;48.778;9.252;2022-11-14T15:52:17;20.63;;;19.23;;
1122;SDS011;548;48.778;9.252;2022-11-14T15:54:46;22.80;;;20.93;;
1122;SDS011;548;48.778;9.252;2022-11-14T15:57:13;22.10;;;20.87;;
1122;SDS011;548;48.778;9.252;2022-11-14T15:59:41;21.47;;;19.97;;
1122;SDS011;548;48.778;9.252;2022-11-14T16:02:11;19.40;;;17.90;;
1122;SDS011;548;48.778;9.252;2022-11-14T16:04:40;20.00;;;18.80;;
1122;SDS011;548;48.778;9.252;2022-11-14T16:07:08;17.50;;;16.50;;
1122;SDS011;548;48.778;9.252;2022-11-14T16:09:36;17.90;;;16.47;;
1122;SDS011;548;48.778;9.252;2022-11-14T16:12:03;16.43;;;15.47;;
1122;SDS011;548;48.778;9.252;2022-11-14T16:14:30;17.10;;;16.10;;
1122;SDS011;548;48.778;9.252;2022-11-14T16:16:57;18.10;;;16.63;;
1122;SDS011;548;48.778;9.252;2022-11-14T16:19:25;16.57;;;15.57;;
1122;SDS011;548;48.778;9.252;2022-11-14T16:21:52;16.97;;;15.90;;
1122;SDS011;548;48.778;9.252;2022-11-14T16:24:20;17.73;;;16.33;;
1122;SDS011;548;48.778;9.252;2022-11-14T16:26:48;18.57;;;16.80;;
1122;SDS011;548;48.778;9.252;2022-11-14T16:29:14;17.17;;;15.87;;
1122;SDS011;548;48.778;9.252;2022-11-14T16:31:41;17.70;;;16.60;;
1122;SDS011;548;48.778;9.252;2022-11-14T16:34:09;18.67;;;17.57;;
1122;SDS011;548;48.778;9.252;2022-11-14T16:36:43;18.67;;;17.50;;
1122;SDS011;548;48.778;9.252;2022-11-14T16:39:10;18.90;;;17.90;;
1122;SDS011;548;48.778;9.252;2022-11-14T16:41:37;16.70;;;15.30;;
1122;SDS011;548;48.778;9.252;2022-11-14T16:44:04;16.70;;;15.80;;
1122;SDS011;548;48.778;9.252;2022-11-14T16:46:31;15.73;;;14.93;;
1122;SDS011;548;48.778;9.252;2022-11-14T16:48:58;17.40;;;16.40;;
1122;SDS011;548;48.778;9.252;2022-11-14T16:51:25;16.50;;;15.60;;
1122;SDS011;548;48.778;9.252;2022-11-14T16:53:54;15.67;;;14.90;;
1122;SDS011;548;48.778;9.252;2022-11-14T16:56:21;16.53;;;15.47;;
1122;SDS011;548;48.778;9.252;2022-11-14T16:58:52;16.93;;;15.90;;
1122;SDS011;548;48.778;9.252;2022-11-14T17:01:19;16.13;;;15.30;;
1122;SDS011;548;48.778;9.252;2022-11-14T17:03:46;15.87;;;15.07;;
1122;SDS011;548;48.778;9.252;2022-11-14T17:06:13;15.17;;;14.27;;
1122;SDS011;548;48.778;9.252;2022-11-14T17:08:39;16.23;;;15.30;;
1122;SDS011;548;48.778;9.252;2022-11-14T17:11:08;16.23;;;14.90;;
1122;SDS011;548;48.778;9.252;2022-11-14T17:13:35;16.80;;;15.80;;
1122;SDS011;548;48.778;9.252;2022-11-14T17:16:02;17.03;;;16.13;;
1122;SDS011;548;48.778;9.252;2022-11-14T17:18:30;17.07;;;15.97;;
1122;SDS011;548;48.778;9.252;2022-11-14T17:20:56;18.00;;;16.33;;
1122;SDS011;548;48.778;9.252;2022-11-14T17:23:23;16.97;;;15.67;;
1122;SDS011;548;48.778;9.252;2022-11-14T17:25:50;18.80;;;17.47;;
1122;SDS011;548;48.778;9.252;2022-11-14T17:28:18;18.80;;;17.50;;
1122;SDS011;548;48.778;9.252;2022-11-14T17:30:45;18.00;;;16.60;;
1122;SDS011;548;48.778;9.252;2022-11-14T17:33:12;17.83;;;16.70;;
1122;SDS011;548;48.778;9.252;2022-11-14T17:35:38;18.13;;;16.93;;
1122;SDS011;548;48.778;9.252;2022-11-14T17:38:05;20.07;;;18.33;;
1122;SDS011;548;48.778;9.252;2022-11-14T17:40:32;19.97;;;18.17;;
1122;SDS011;548;48.778;9.252;2022-11-14T17:42:59;19.83;;;18.10;;
1122;SDS011;548;48.778;9.252;2022-11-14T17:45:27;22.50;;;20.60;;
1122;SDS011;548;48.778;9.252;2022-11-14T17:47:54;20.80;;;19.23;;
1122;SDS011;548;48.778;9.252;2022-11-14T17:50:20;20.53;;;19.07;;
1122;SDS011;548;48.778;9.252;2022-11-14T17:52:47;21.60;;;19.73;;
1122;SDS011;548;48.778;9.252;2022-11-14T17:55:14;21.17;;;19.40;;
1122;SDS011;548;48.778;9.252;2022-11-14T17:57:41;19.40;;;18.00;;
1122;SDS011;548;48.778;9.252;2022-11-14T18:00:08;17.77;;;16.60;;
1122;SDS011;548;48.778;9.252;2022-11-14T18:02:37;18.00;;;16.50;;
1122;SDS011;548;48.778;9.252;2022-11-14T18:05:04;19.90;;;18.50;;
1122;SDS011;548;48.778;9.252;2022-11-14T18:07:31;17.80;;;16.70;;
1122;SDS011;548;48.778;9.252;2022-11-14T18:09:58;18.13;;;16.73;;
1122;SDS011;548;48.778;9.252;2022-11-14T18:12:25;19.03;;;17.83;;
1122;SDS011;548;48.778;9.252;2022-11-14T18:14:51;19.83;;;18.33;;
1122;SDS011;548;48.778;9.252;2022-11-14T18:17:18;18.97;;;17.77;;
1122;SDS011;548;48.778;9.252;2022-11-14T18:19:46;18.80;;;17.53;;
1122;SDS011;548;48.778;9.252;2022-11-14T18:22:13;19.83;;;18.13;;
1122;SDS011;548;48.778;9.252;2022-11-14T18:24:39;17.60;;;16.60;;
1122;SDS011;548;48.778;9.252;2022-11-14T18:27:11;19.87;;;18.70;;
1122;SDS011;548;48.778;9.252;2022-11-14T18:29:38;18.77;;;17.57;;
1122;SDS011;548;48.778;9.252;2022-11-14T18:32:04;19.90;;;18.50;;
1122;SDS011;548;48.778;9.252;2022-11-14T18:34:31;18.90;;;17.70;;
1122;SDS011;548;48.778;9.252;2022-11-14T18:37:02;18.63;;;17.20;;
1122;SDS011;548;48.778;9.252;2022-11-14T18:39:28;18.70;;;17.27;;
1122;SDS011;548;48.778;9.252;2022-11-14T18:41:55;20.90;;;19.20;;
1122;SDS011;548;48.778;9.252;2022-11-14T18:44:25;18.70;;;17.60;;
1122;SDS011;548;48.778;9.252;2022-11-14T18:46:52;19.60;;;18.30;;
1122;SDS011;548;48.778;9.252;2022-11-14T18:49:19;21.50;;;19.57;;
1122;SDS011;548;48.778;9.252;2022-11-14T18:51:46;19.07;;;17.80;;
1122;SDS011;548;48.778;9.252;2022-11-14T18:54:27;20.60;;;18.83;;
1122;SDS011;548;48.778;9.252;2022-11-14T18:56:53;19.23;;;17.87;;
1122;SDS011;548;48.778;9.252;2022-11-14T18:59:24;19.03;;;17.60;;
1122;SDS011;548;48.778;9.252;2022-11-14T19:01:52;18.77;;;17.47;;
1122;SDS011;548;48.778;9.252;2022-11-14T19:04:18;18.00;;;16.90;;
1122;SDS011;548;48.778;9.252;2022-11-14T19:06:46;19.57;;;17.97;;
1122;SDS011;548;48.778;9.252;2022-11-14T19:09:13;19.03;;;17.93;;
1122;SDS011;548;48.778;9.252;2022-11-14T19:11:47;19.30;;;18.10;;
1122;SDS011;548;48.778;9.252;2022-11-14T19:14:31;19.53;;;18.23;;
1122;SDS011;548;48.778;9.252;2022-11-14T19:16:58;20.70;;;18.90;;
1122;SDS011;548;48.778;9.252;2022-11-14T19:19:26;19.60;;;18.33;;
1122;SDS011;548;48.778;9.252;2022-11-14T19:21:53;19.90;;;18.27;;
1122;SDS011;548;48.778;9.252;2022-11-14T19:24:20;18.57;;;17.37;;
1122;SDS011;548;48.778;9.252;2022-11-14T19:26:48;20.07;;;18.27;;
1122;SDS011;548;48.778;9.252;2022-11-14T19:29:15;19.30;;;18.00;;
1122;SDS011;548;48.778;9.252;2022-11-14T19:33:00;19.77;;;18.47;;
1122;SDS011;548;48.778;9.252;2022-11-14T19:35:09;17.90;;;16.80;;
1122;SDS011;548;48.778;9.252;2022-11-14T19:37:37;19.07;;;17.93;;
1122;SDS011;548;48.778;9.252;2022-11-14T19:40:04;21.20;;;19.80;;
1122;SDS011;548;48.778;9.252;2022-11-14T19:42:33;22.27;;;19.97;;